sensor_id;sensor_type;location;lat;lon;timestamp;temperature;humidity
12815;DHT22;6472;52.328;13.070;2023-03-21T00:01:03;7.70;99.90
12815;DHT22;6472;52.328;13.070;2023-03-21T00:03:33;7.60;99.90
12815;DHT22;6472;52.328;13.070;2023-03-21T00:06:04;7.60;99.90
12815;DHT22;6472;52.328;13.070;2023-03-21T00:08:33;7.60;99.90
12815;DHT22;6472;52.328;13.070;2023-03-21T00:11:03;7.60;99.90
12815;DHT22;6472;52.328;13.070;2023-03-21T00:13:33;7.60;99.90
12815;DHT22;6472;52.328;13.070;2023-03-21T00:16:07;7.60;99.90
12815;DHT22;6472;52.328;13.070;2023-03-21T00:18:56;7.60;99.90
12815;DHT22;6472;52.328;13.070;2023-03-21T00:21:25;7.50;99.90
12815;DHT22;6472;52.328;13.070;2023-03-21T00:24:17;7.50;99.90
12815;DHT22;6472;52.328;13.070;2023-03-21T00:26:48;7.50;99.90
12815;DHT22;6472;52.328;13.070;2023-03-21T00:29:16;7.60;99.90
12815;DHT22;6472;52.328;13.070;2023-03-21T00:31:46;7.50;99.90
12815;DHT22;6472;52.328;13.070;2023-03-21T00:34:14;7.50;99.90
12815;DHT22;6472;52.328;13.070;2023-03-21T00:36:57;7.50;99.90
12815;DHT22;6472;52.328;13.070;2023-03-21T00:39:27;7.70;99.90
12815;DHT22;6472;52.328;13.070;2023-03-21T00:41:55;7.50;99.90
12815;DHT22;6472;52.328;13.070;2023-03-21T00:44:24;7.50;99.90
12815;DHT22;6472;52.328;13.070;2023-03-21T00:46:53;7.60;99.90
12815;DHT22;6472;52.328;13.070;2023-03-21T00:49:33;7.60;99.90
12815;DHT22;6472;52.328;13.070;2023-03-21T00:52:06;7.60;99.90
12815;DHT22;6472;52.328;13.070;2023-03-21T00:54:48;7.60;99.90
12815;DHT22;6472;52.328;13.070;2023-03-21T00:57:16;7.60;99.90
12815;DHT22;6472;52.328;13.070;2023-03-21T00:59:45;7.60;99.90
12815;DHT22;6472;52.328;13.070;2023-03-21T01:02:15;7.70;99.90
12815;DHT22;6472;52.328;13.070;2023-03-21T01:04:49;7.70;99.90
12815;DHT22;6472;52.328;13.070;2023-03-21T01:07:17;7.70;99.90
12815;DHT22;6472;52.328;13.070;2023-03-21T01:09:45;7.70;99.90
12815;DHT22;6472;52.328;13.070;2023-03-21T01:12:13;7.60;99.90
12815;DHT22;6472;52.328;13.070;2023-03-21T01:14:41;7.60;99.90
12815;DHT22;6472;52.328;13.070;2023-03-21T01:17:09;7.60;99.90
12815;DHT22;6472;52.328;13.070;2023-03-21T01:19:38;7.60;99.90
12815;DHT22;6472;52.328;13.070;2023-03-21T01:22:17;7.50;99.90
12815;DHT22;6472;52.328;13.070;2023-03-21T01:24:45;7.50;99.90
12815;DHT22;6472;52.328;13.070;2023-03-21T01:27:24;7.40;99.90
12815;DHT22;6472;52.328;13.070;2023-03-21T01:29:52;7.30;99.90
12815;DHT22;6472;52.328;13.070;2023-03-21T01:32:19;7.30;99.90
12815;DHT22;6472;52.328;13.070;2023-03-21T01:34:49;7.30;99.90
12815;DHT22;6472;52.328;13.070;2023-03-21T01:37:17;7.20;99.90
12815;DHT22;6472;52.328;13.070;2023-03-21T01:39:45;7.20;99.90
12815;DHT22;6472;52.328;13.070;2023-03-21T01:42:13;7.10;99.90
12815;DHT22;6472;52.328;13.070;2023-03-21T01:44:52;7.00;99.90
12815;DHT22;6472;52.328;13.070;2023-03-21T01:47:20;6.90;99.90
12815;DHT22;6472;52.328;13.070;2023-03-21T01:49:52;6.80;99.90
12815;DHT22;6472;52.328;13.070;2023-03-21T01:52:24;6.80;99.90
12815;DHT22;6472;52.328;13.070;2023-03-21T01:55:05;6.70;99.90
12815;DHT22;6472;52.328;13.070;2023-03-21T01:57:39;6.80;99.90
12815;DHT22;6472;52.328;13.070;2023-03-21T02:00:30;6.80;99.90
12815;DHT22;6472;52.328;13.070;2023-03-21T02:02:59;6.70;99.90
12815;DHT22;6472;52.328;13.070;2023-03-21T02:05:55;6.70;99.90
12815;DHT22;6472;52.328;13.070;2023-03-21T02:08:27;6.70;99.90
12815;DHT22;6472;52.328;13.070;2023-03-21T02:11:05;6.70;99.90
12815;DHT22;6472;52.328;13.070;2023-03-21T02:13:34;6.60;99.90
12815;DHT22;6472;52.328;13.070;2023-03-21T02:16:10;6.60;99.90
12815;DHT22;6472;52.328;13.070;2023-03-21T02:18:46;6.60;99.90
12815;DHT22;6472;52.328;13.070;2023-03-21T02:24:56;6.60;99.90
12815;DHT22;6472;52.328;13.070;2023-03-21T02:27:39;6.60;99.90
12815;DHT22;6472;52.328;13.070;2023-03-21T02:33:36;6.60;99.90
12815;DHT22;6472;52.328;13.070;2023-03-21T02:36:16;6.60;99.90
12815;DHT22;6472;52.328;13.070;2023-03-21T02:38:53;6.60;99.90
12815;DHT22;6472;52.328;13.070;2023-03-21T02:41:30;6.60;99.90
12815;DHT22;6472;52.328;13.070;2023-03-21T02:44:09;6.70;99.90
12815;DHT22;6472;52.328;13.070;2023-03-21T02:46:45;6.70;99.90
12815;DHT22;6472;52.328;13.070;2023-03-21T02:49:34;6.70;99.90
12815;DHT22;6472;52.328;13.070;2023-03-21T02:52:08;6.50;99.90
12815;DHT22;6472;52.328;13.070;2023-03-21T02:54:54;6.60;99.90
12815;DHT22;6472;52.328;13.070;2023-03-21T02:57:22;6.70;99.90
12815;DHT22;6472;52.328;13.070;2023-03-21T03:00:03;6.70;99.90
12815;DHT22;6472;52.328;13.070;2023-03-21T03:02:42;6.70;99.90
12815;DHT22;6472;52.328;13.070;2023-03-21T03:05:13;6.80;99.90
12815;DHT22;6472;52.328;13.070;2023-03-21T03:08:05;6.80;99.90
12815;DHT22;6472;52.328;13.070;2023-03-21T03:10:51;6.80;99.90
12815;DHT22;6472;52.328;13.070;2023-03-21T03:13:34;6.70;99.90
12815;DHT22;6472;52.328;13.070;2023-03-21T03:16:11;6.70;99.90
12815;DHT22;6472;52.328;13.070;2023-03-21T03:18:49;6.70;99.90
12815;DHT22;6472;52.328;13.070;2023-03-21T03:21:21;6.70;99.90
12815;DHT22;6472;52.328;13.070;2023-03-21T03:23:54;6.70;99.90
12815;DHT22;6472;52.328;13.070;2023-03-21T03:26:29;6.70;99.90
12815;DHT22;6472;52.328;13.070;2023-03-21T03:29:03;6.70;99.90
12815;DHT22;6472;52.328;13.070;2023-03-21T03:31:34;6.70;99.90
12815;DHT22;6472;52.328;13.070;2023-03-21T03:34:06;6.70;99.90
12815;DHT22;6472;52.328;13.070;2023-03-21T03:36:39;6.70;99.90
12815;DHT22;6472;52.328;13.070;2023-03-21T03:39:10;6.70;99.90
12815;DHT22;6472;52.328;13.070;2023-03-21T03:41:44;6.70;99.90
12815;DHT22;6472;52.328;13.070;2023-03-21T03:44:33;6.70;99.90
12815;DHT22;6472;52.328;13.070;2023-03-21T03:47:04;6.70;99.90
12815;DHT22;6472;52.328;13.070;2023-03-21T03:49:37;6.70;99.90
12815;DHT22;6472;52.328;13.070;2023-03-21T03:52:12;6.70;99.90
12815;DHT22;6472;52.328;13.070;2023-03-21T03:54:44;6.70;99.90
12815;DHT22;6472;52.328;13.070;2023-03-21T03:57:14;6.70;99.90
12815;DHT22;6472;52.328;13.070;2023-03-21T03:59:44;6.80;99.90
12815;DHT22;6472;52.328;13.070;2023-03-21T04:02:12;6.80;99.90
12815;DHT22;6472;52.328;13.070;2023-03-21T04:04:42;6.80;99.90
12815;DHT22;6472;52.328;13.070;2023-03-21T04:07:10;6.70;99.90
12815;DHT22;6472;52.328;13.070;2023-03-21T04:09:38;6.70;99.90
12815;DHT22;6472;52.328;13.070;2023-03-21T04:12:10;6.70;99.90
12815;DHT22;6472;52.328;13.070;2023-03-21T04:14:40;6.70;99.90
12815;DHT22;6472;52.328;13.070;2023-03-21T04:17:13;6.70;99.90
12815;DHT22;6472;52.328;13.070;2023-03-21T04:19:42;6.70;99.90
12815;DHT22;6472;52.328;13.070;2023-03-21T04:22:11;6.70;99.90
12815;DHT22;6472;52.328;13.070;2023-03-21T04:24:39;6.70;99.90
12815;DHT22;6472;52.328;13.070;2023-03-21T04:27:08;6.70;99.90
12815;DHT22;6472;52.328;13.070;2023-03-21T04:29:36;6.70;99.90
12815;DHT22;6472;52.328;13.070;2023-03-21T04:32:05;6.70;99.90
12815;DHT22;6472;52.328;13.070;2023-03-21T04:34:42;6.80;99.90
12815;DHT22;6472;52.328;13.070;2023-03-21T04:37:16;6.80;99.90
12815;DHT22;6472;52.328;13.070;2023-03-21T04:39:45;6.80;99.90
12815;DHT22;6472;52.328;13.070;2023-03-21T04:42:13;6.70;99.90
12815;DHT22;6472;52.328;13.070;2023-03-21T04:44:41;6.70;99.90
12815;DHT22;6472;52.328;13.070;2023-03-21T04:47:11;6.70;99.90
12815;DHT22;6472;52.328;13.070;2023-03-21T04:49:41;6.70;99.90
12815;DHT22;6472;52.328;13.070;2023-03-21T04:52:09;6.60;99.90
12815;DHT22;6472;52.328;13.070;2023-03-21T04:54:37;6.60;99.90
12815;DHT22;6472;52.328;13.070;2023-03-21T04:57:05;6.50;99.90
12815;DHT22;6472;52.328;13.070;2023-03-21T04:59:34;6.50;99.90
12815;DHT22;6472;52.328;13.070;2023-03-21T05:02:02;6.50;99.90
12815;DHT22;6472;52.328;13.070;2023-03-21T05:04:31;6.50;99.90
12815;DHT22;6472;52.328;13.070;2023-03-21T05:06:59;6.50;99.90
12815;DHT22;6472;52.328;13.070;2023-03-21T05:09:27;6.50;99.90
12815;DHT22;6472;52.328;13.070;2023-03-21T05:11:55;6.50;99.90
12815;DHT22;6472;52.328;13.070;2023-03-21T05:14:25;6.60;99.90
12815;DHT22;6472;52.328;13.070;2023-03-21T05:16:54;6.50;99.90
12815;DHT22;6472;52.328;13.070;2023-03-21T05:19:25;6.50;99.90
12815;DHT22;6472;52.328;13.070;2023-03-21T05:22:03;6.60;99.90
12815;DHT22;6472;52.328;13.070;2023-03-21T05:24:32;6.60;99.90
12815;DHT22;6472;52.328;13.070;2023-03-21T05:27:00;6.60;99.90
12815;DHT22;6472;52.328;13.070;2023-03-21T05:29:29;6.70;99.90
12815;DHT22;6472;52.328;13.070;2023-03-21T05:31:59;6.70;99.90
12815;DHT22;6472;52.328;13.070;2023-03-21T05:34:28;6.70;99.90
12815;DHT22;6472;52.328;13.070;2023-03-21T05:36:56;6.70;99.90
12815;DHT22;6472;52.328;13.070;2023-03-21T05:39:25;6.70;99.90
12815;DHT22;6472;52.328;13.070;2023-03-21T05:41:53;6.70;99.90
12815;DHT22;6472;52.328;13.070;2023-03-21T05:44:21;6.80;99.90
12815;DHT22;6472;52.328;13.070;2023-03-21T05:46:50;6.90;99.90
12815;DHT22;6472;52.328;13.070;2023-03-21T05:49:18;7.00;99.90
12815;DHT22;6472;52.328;13.070;2023-03-21T05:51:48;7.00;99.90
12815;DHT22;6472;52.328;13.070;2023-03-21T05:54:16;7.00;99.90
12815;DHT22;6472;52.328;13.070;2023-03-21T05:56:45;7.00;99.90
12815;DHT22;6472;52.328;13.070;2023-03-21T05:59:13;7.00;99.90
12815;DHT22;6472;52.328;13.070;2023-03-21T06:01:42;7.00;99.90
12815;DHT22;6472;52.328;13.070;2023-03-21T06:04:10;7.00;99.90
12815;DHT22;6472;52.328;13.070;2023-03-21T06:06:38;7.10;99.90
12815;DHT22;6472;52.328;13.070;2023-03-21T06:09:06;7.10;99.90
12815;DHT22;6472;52.328;13.070;2023-03-21T06:11:36;7.20;99.90
12815;DHT22;6472;52.328;13.070;2023-03-21T06:14:06;7.20;99.90
12815;DHT22;6472;52.328;13.070;2023-03-21T06:16:34;7.20;99.90
12815;DHT22;6472;52.328;13.070;2023-03-21T06:19:02;7.20;99.90
12815;DHT22;6472;52.328;13.070;2023-03-21T06:21:30;7.20;99.90
12815;DHT22;6472;52.328;13.070;2023-03-21T06:23:58;7.20;99.90
12815;DHT22;6472;52.328;13.070;2023-03-21T06:26:26;7.30;99.90
12815;DHT22;6472;52.328;13.070;2023-03-21T06:28:54;7.30;99.90
12815;DHT22;6472;52.328;13.070;2023-03-21T06:31:23;7.30;99.90
12815;DHT22;6472;52.328;13.070;2023-03-21T06:33:52;7.30;99.90
12815;DHT22;6472;52.328;13.070;2023-03-21T06:36:20;7.20;99.90
12815;DHT22;6472;52.328;13.070;2023-03-21T06:38:48;7.30;99.90
12815;DHT22;6472;52.328;13.070;2023-03-21T06:41:16;7.30;99.90
12815;DHT22;6472;52.328;13.070;2023-03-21T06:43:45;7.40;99.90
12815;DHT22;6472;52.328;13.070;2023-03-21T06:46:14;7.40;99.90
12815;DHT22;6472;52.328;13.070;2023-03-21T06:48:43;7.40;99.90
12815;DHT22;6472;52.328;13.070;2023-03-21T06:51:13;7.50;99.90
12815;DHT22;6472;52.328;13.070;2023-03-21T06:53:41;7.50;99.90
12815;DHT22;6472;52.328;13.070;2023-03-21T06:56:12;7.60;99.90
12815;DHT22;6472;52.328;13.070;2023-03-21T06:58:40;7.80;99.90
12815;DHT22;6472;52.328;13.070;2023-03-21T07:01:08;7.90;99.90
12815;DHT22;6472;52.328;13.070;2023-03-21T07:03:37;8.00;99.90
12815;DHT22;6472;52.328;13.070;2023-03-21T07:06:08;8.00;99.90
12815;DHT22;6472;52.328;13.070;2023-03-21T07:08:38;8.00;99.90
12815;DHT22;6472;52.328;13.070;2023-03-21T07:11:07;8.30;99.90
12815;DHT22;6472;52.328;13.070;2023-03-21T07:13:36;8.20;99.90
12815;DHT22;6472;52.328;13.070;2023-03-21T07:16:04;8.30;99.90
12815;DHT22;6472;52.328;13.070;2023-03-21T07:18:33;8.50;99.90
12815;DHT22;6472;52.328;13.070;2023-03-21T07:21:01;8.50;99.90
12815;DHT22;6472;52.328;13.070;2023-03-21T07:23:31;8.50;99.90
12815;DHT22;6472;52.328;13.070;2023-03-21T07:26:00;8.40;99.90
12815;DHT22;6472;52.328;13.070;2023-03-21T07:28:28;8.50;99.90
12815;DHT22;6472;52.328;13.070;2023-03-21T07:30:59;8.60;99.90
12815;DHT22;6472;52.328;13.070;2023-03-21T07:33:28;8.60;99.90
12815;DHT22;6472;52.328;13.070;2023-03-21T07:35:57;8.60;99.90
12815;DHT22;6472;52.328;13.070;2023-03-21T07:38:26;8.70;99.90
12815;DHT22;6472;52.328;13.070;2023-03-21T07:40:58;8.80;99.90
12815;DHT22;6472;52.328;13.070;2023-03-21T07:43:26;8.80;99.90
12815;DHT22;6472;52.328;13.070;2023-03-21T07:45:56;8.80;99.90
12815;DHT22;6472;52.328;13.070;2023-03-21T07:48:24;8.90;99.90
12815;DHT22;6472;52.328;13.070;2023-03-21T07:50:52;9.00;99.90
12815;DHT22;6472;52.328;13.070;2023-03-21T07:53:20;8.90;99.90
12815;DHT22;6472;52.328;13.070;2023-03-21T07:55:49;9.10;99.90
12815;DHT22;6472;52.328;13.070;2023-03-21T07:58:19;9.20;99.90
12815;DHT22;6472;52.328;13.070;2023-03-21T08:00:47;9.30;99.90
12815;DHT22;6472;52.328;13.070;2023-03-21T08:03:15;9.50;99.90
12815;DHT22;6472;52.328;13.070;2023-03-21T08:05:43;9.60;99.90
12815;DHT22;6472;52.328;13.070;2023-03-21T08:08:11;9.60;99.90
12815;DHT22;6472;52.328;13.070;2023-03-21T08:10:41;9.70;99.90
12815;DHT22;6472;52.328;13.070;2023-03-21T08:13:09;9.70;99.90
12815;DHT22;6472;52.328;13.070;2023-03-21T08:15:38;9.80;99.90
12815;DHT22;6472;52.328;13.070;2023-03-21T08:18:08;10.00;99.90
12815;DHT22;6472;52.328;13.070;2023-03-21T08:20:37;9.80;99.90
12815;DHT22;6472;52.328;13.070;2023-03-21T08:23:05;9.90;99.90
12815;DHT22;6472;52.328;13.070;2023-03-21T08:25:33;9.90;99.90
12815;DHT22;6472;52.328;13.070;2023-03-21T08:28:02;10.00;99.90
12815;DHT22;6472;52.328;13.070;2023-03-21T08:30:30;9.90;99.90
12815;DHT22;6472;52.328;13.070;2023-03-21T08:33:00;9.90;99.90
12815;DHT22;6472;52.328;13.070;2023-03-21T08:35:29;10.10;99.90
12815;DHT22;6472;52.328;13.070;2023-03-21T08:37:57;10.30;99.90
12815;DHT22;6472;52.328;13.070;2023-03-21T08:40:25;10.30;99.90
12815;DHT22;6472;52.328;13.070;2023-03-21T08:42:53;10.30;99.90
12815;DHT22;6472;52.328;13.070;2023-03-21T08:45:22;10.20;99.90
12815;DHT22;6472;52.328;13.070;2023-03-21T08:47:51;10.20;99.90
12815;DHT22;6472;52.328;13.070;2023-03-21T08:50:22;10.30;99.90
12815;DHT22;6472;52.328;13.070;2023-03-21T08:52:52;10.30;99.90
12815;DHT22;6472;52.328;13.070;2023-03-21T08:55:20;10.40;99.90
12815;DHT22;6472;52.328;13.070;2023-03-21T08:57:48;10.40;99.90
12815;DHT22;6472;52.328;13.070;2023-03-21T09:00:17;10.50;99.90
12815;DHT22;6472;52.328;13.070;2023-03-21T09:02:47;10.50;99.90
12815;DHT22;6472;52.328;13.070;2023-03-21T09:05:17;10.50;99.90
12815;DHT22;6472;52.328;13.070;2023-03-21T09:07:47;10.40;99.90
12815;DHT22;6472;52.328;13.070;2023-03-21T09:10:18;10.40;99.90
12815;DHT22;6472;52.328;13.070;2023-03-21T09:12:49;10.40;99.90
12815;DHT22;6472;52.328;13.070;2023-03-21T09:15:18;10.50;99.90
12815;DHT22;6472;52.328;13.070;2023-03-21T09:17:48;10.60;99.90
12815;DHT22;6472;52.328;13.070;2023-03-21T09:20:19;10.80;99.90
12815;DHT22;6472;52.328;13.070;2023-03-21T09:22:53;10.80;99.90
12815;DHT22;6472;52.328;13.070;2023-03-21T09:25:22;10.80;99.90
12815;DHT22;6472;52.328;13.070;2023-03-21T09:27:50;10.80;99.90
12815;DHT22;6472;52.328;13.070;2023-03-21T09:30:19;10.90;99.90
12815;DHT22;6472;52.328;13.070;2023-03-21T09:32:51;10.90;99.90
12815;DHT22;6472;52.328;13.070;2023-03-21T09:35:21;10.90;99.90
12815;DHT22;6472;52.328;13.070;2023-03-21T09:37:50;10.80;99.90
12815;DHT22;6472;52.328;13.070;2023-03-21T09:40:24;10.80;99.90
12815;DHT22;6472;52.328;13.070;2023-03-21T09:43:02;10.80;99.90
12815;DHT22;6472;52.328;13.070;2023-03-21T09:45:38;10.70;99.90
12815;DHT22;6472;52.328;13.070;2023-03-21T09:48:16;10.80;99.90
12815;DHT22;6472;52.328;13.070;2023-03-21T09:50:46;10.70;99.90
12815;DHT22;6472;52.328;13.070;2023-03-21T09:53:17;10.70;99.90
12815;DHT22;6472;52.328;13.070;2023-03-21T09:55:49;10.60;99.90
12815;DHT22;6472;52.328;13.070;2023-03-21T09:58:23;10.50;99.90
12815;DHT22;6472;52.328;13.070;2023-03-21T10:00:57;10.50;99.90
12815;DHT22;6472;52.328;13.070;2023-03-21T10:03:30;10.50;99.90
12815;DHT22;6472;52.328;13.070;2023-03-21T10:06:03;10.60;99.90
12815;DHT22;6472;52.328;13.070;2023-03-21T10:08:35;10.70;99.90
12815;DHT22;6472;52.328;13.070;2023-03-21T10:11:10;10.70;99.90
12815;DHT22;6472;52.328;13.070;2023-03-21T10:13:43;10.90;99.90
12815;DHT22;6472;52.328;13.070;2023-03-21T10:16:15;11.00;99.90
12815;DHT22;6472;52.328;13.070;2023-03-21T10:18:45;11.20;99.90
12815;DHT22;6472;52.328;13.070;2023-03-21T10:21:19;11.40;99.90
12815;DHT22;6472;52.328;13.070;2023-03-21T10:24:10;11.50;99.90
12815;DHT22;6472;52.328;13.070;2023-03-21T10:26:41;11.90;99.90
12815;DHT22;6472;52.328;13.070;2023-03-21T10:29:12;12.00;99.90
12815;DHT22;6472;52.328;13.070;2023-03-21T10:31:41;12.00;99.90
12815;DHT22;6472;52.328;13.070;2023-03-21T10:34:15;12.10;99.90
12815;DHT22;6472;52.328;13.070;2023-03-21T10:36:44;12.20;99.90
12815;DHT22;6472;52.328;13.070;2023-03-21T10:39:20;12.10;99.90
12815;DHT22;6472;52.328;13.070;2023-03-21T10:41:53;12.00;99.90
12815;DHT22;6472;52.328;13.070;2023-03-21T10:44:28;12.00;99.90
12815;DHT22;6472;52.328;13.070;2023-03-21T10:46:58;12.00;99.90
12815;DHT22;6472;52.328;13.070;2023-03-21T10:49:30;12.10;99.90
12815;DHT22;6472;52.328;13.070;2023-03-21T10:52:16;12.20;99.90
12815;DHT22;6472;52.328;13.070;2023-03-21T10:54:45;12.20;99.90
12815;DHT22;6472;52.328;13.070;2023-03-21T10:57:19;12.20;99.90
12815;DHT22;6472;52.328;13.070;2023-03-21T10:59:51;12.20;99.90
12815;DHT22;6472;52.328;13.070;2023-03-21T11:02:24;12.30;99.90
12815;DHT22;6472;52.328;13.070;2023-03-21T11:04:53;12.30;99.90
12815;DHT22;6472;52.328;13.070;2023-03-21T11:07:22;12.20;99.90
12815;DHT22;6472;52.328;13.070;2023-03-21T11:09:58;12.30;99.90
12815;DHT22;6472;52.328;13.070;2023-03-21T11:12:34;12.40;99.90
12815;DHT22;6472;52.328;13.070;2023-03-21T11:15:27;12.40;99.90
12815;DHT22;6472;52.328;13.070;2023-03-21T11:17:56;12.50;99.90
12815;DHT22;6472;52.328;13.070;2023-03-21T11:20:25;12.70;99.90
12815;DHT22;6472;52.328;13.070;2023-03-21T11:22:55;12.70;99.90
12815;DHT22;6472;52.328;13.070;2023-03-21T11:25:29;12.80;99.90
12815;DHT22;6472;52.328;13.070;2023-03-21T11:28:04;12.90;99.90
12815;DHT22;6472;52.328;13.070;2023-03-21T11:30:33;13.00;99.90
12815;DHT22;6472;52.328;13.070;2023-03-21T11:33:02;13.10;99.90
12815;DHT22;6472;52.328;13.070;2023-03-21T11:35:35;13.20;99.90
12815;DHT22;6472;52.328;13.070;2023-03-21T11:38:04;13.20;99.90
12815;DHT22;6472;52.328;13.070;2023-03-21T11:40:35;13.40;99.90
12815;DHT22;6472;52.328;13.070;2023-03-21T11:43:25;13.50;99.90
12815;DHT22;6472;52.328;13.070;2023-03-21T11:45:58;13.40;99.90
12815;DHT22;6472;52.328;13.070;2023-03-21T11:48:27;13.40;99.90
12815;DHT22;6472;52.328;13.070;2023-03-21T11:50:59;13.20;99.90
12815;DHT22;6472;52.328;13.070;2023-03-21T11:53:36;13.20;99.90
12815;DHT22;6472;52.328;13.070;2023-03-21T11:56:21;13.40;99.90
12815;DHT22;6472;52.328;13.070;2023-03-21T11:59:03;13.40;99.90
12815;DHT22;6472;52.328;13.070;2023-03-21T12:01:39;13.50;99.90
12815;DHT22;6472;52.328;13.070;2023-03-21T12:07:20;13.60;99.90
12815;DHT22;6472;52.328;13.070;2023-03-21T12:09:56;13.70;99.90
12815;DHT22;6472;52.328;13.070;2023-03-21T12:12:35;13.60;99.90
12815;DHT22;6472;52.328;13.070;2023-03-21T12:15:13;13.60;99.90
12815;DHT22;6472;52.328;13.070;2023-03-21T12:17:50;13.50;99.90
12815;DHT22;6472;52.328;13.070;2023-03-21T12:23:32;13.70;99.90
12815;DHT22;6472;52.328;13.070;2023-03-21T12:26:15;13.70;99.90
12815;DHT22;6472;52.328;13.070;2023-03-21T12:28:56;13.70;99.90
12815;DHT22;6472;52.328;13.070;2023-03-21T12:31:34;13.60;99.90
12815;DHT22;6472;52.328;13.070;2023-03-21T12:34:17;13.60;99.90
12815;DHT22;6472;52.328;13.070;2023-03-21T12:37:01;13.60;99.90
12815;DHT22;6472;52.328;13.070;2023-03-21T12:39:33;13.50;99.90
12815;DHT22;6472;52.328;13.070;2023-03-21T12:42:38;13.60;99.90
12815;DHT22;6472;52.328;13.070;2023-03-21T12:45:12;13.70;99.90
12815;DHT22;6472;52.328;13.070;2023-03-21T12:47:48;13.40;99.90
12815;DHT22;6472;52.328;13.070;2023-03-21T12:50:22;13.70;99.90
12815;DHT22;6472;52.328;13.070;2023-03-21T12:52:53;13.90;99.90
12815;DHT22;6472;52.328;13.070;2023-03-21T12:55:25;14.00;99.90
12815;DHT22;6472;52.328;13.070;2023-03-21T12:57:59;14.10;99.90
12815;DHT22;6472;52.328;13.070;2023-03-21T13:00:34;14.20;99.90
12815;DHT22;6472;52.328;13.070;2023-03-21T13:03:09;14.20;99.90
12815;DHT22;6472;52.328;13.070;2023-03-21T13:05:42;14.20;99.90
12815;DHT22;6472;52.328;13.070;2023-03-21T13:08:15;14.10;99.90
12815;DHT22;6472;52.328;13.070;2023-03-21T13:10:45;13.90;99.90
12815;DHT22;6472;52.328;13.070;2023-03-21T13:13:20;13.80;99.90
12815;DHT22;6472;52.328;13.070;2023-03-21T13:16:03;13.80;99.90
12815;DHT22;6472;52.328;13.070;2023-03-21T13:19:07;13.60;99.90
12815;DHT22;6472;52.328;13.070;2023-03-21T13:21:45;13.40;99.90
12815;DHT22;6472;52.328;13.070;2023-03-21T13:24:23;13.50;99.90
12815;DHT22;6472;52.328;13.070;2023-03-21T13:26:58;13.70;99.90
12815;DHT22;6472;52.328;13.070;2023-03-21T13:29:30;13.80;99.90
12815;DHT22;6472;52.328;13.070;2023-03-21T13:32:07;13.80;99.90
12815;DHT22;6472;52.328;13.070;2023-03-21T13:34:39;13.90;99.90
12815;DHT22;6472;52.328;13.070;2023-03-21T13:37:14;13.90;99.90
12815;DHT22;6472;52.328;13.070;2023-03-21T13:39:45;14.10;99.90
12815;DHT22;6472;52.328;13.070;2023-03-21T13:42:21;14.10;99.90
12815;DHT22;6472;52.328;13.070;2023-03-21T13:44:55;14.20;99.90
12815;DHT22;6472;52.328;13.070;2023-03-21T13:47:39;14.20;99.90
12815;DHT22;6472;52.328;13.070;2023-03-21T13:50:23;14.20;99.90
12815;DHT22;6472;52.328;13.070;2023-03-21T13:53:19;14.30;99.90
12815;DHT22;6472;52.328;13.070;2023-03-21T13:58:51;14.30;99.90
12815;DHT22;6472;52.328;13.070;2023-03-21T14:01:26;14.40;99.90
12815;DHT22;6472;52.328;13.070;2023-03-21T14:03:59;14.30;99.90
12815;DHT22;6472;52.328;13.070;2023-03-21T14:06:36;14.40;99.90
12815;DHT22;6472;52.328;13.070;2023-03-21T14:09:05;14.40;99.90
12815;DHT22;6472;52.328;13.070;2023-03-21T14:11:34;14.30;99.90
12815;DHT22;6472;52.328;13.070;2023-03-21T14:14:10;14.10;99.90
12815;DHT22;6472;52.328;13.070;2023-03-21T14:16:38;14.00;99.90
12815;DHT22;6472;52.328;13.070;2023-03-21T14:19:10;13.80;99.90
12815;DHT22;6472;52.328;13.070;2023-03-21T14:21:46;13.70;99.90
12815;DHT22;6472;52.328;13.070;2023-03-21T14:24:17;13.60;99.90
12815;DHT22;6472;52.328;13.070;2023-03-21T14:26:47;13.40;99.90
12815;DHT22;6472;52.328;13.070;2023-03-21T14:29:20;13.50;99.90
12815;DHT22;6472;52.328;13.070;2023-03-21T14:31:52;13.50;99.90
12815;DHT22;6472;52.328;13.070;2023-03-21T14:34:22;13.60;99.90
12815;DHT22;6472;52.328;13.070;2023-03-21T14:36:53;13.50;99.90
12815;DHT22;6472;52.328;13.070;2023-03-21T14:39:28;13.70;99.90
12815;DHT22;6472;52.328;13.070;2023-03-21T14:42:02;13.60;99.90
12815;DHT22;6472;52.328;13.070;2023-03-21T14:44:36;13.70;99.90
12815;DHT22;6472;52.328;13.070;2023-03-21T14:47:22;13.80;99.90
12815;DHT22;6472;52.328;13.070;2023-03-21T14:49:51;13.90;99.90
12815;DHT22;6472;52.328;13.070;2023-03-21T14:52:22;14.00;99.90
12815;DHT22;6472;52.328;13.070;2023-03-21T14:54:51;13.90;99.90
12815;DHT22;6472;52.328;13.070;2023-03-21T14:57:23;13.90;99.90
12815;DHT22;6472;52.328;13.070;2023-03-21T14:59:54;13.90;99.90
12815;DHT22;6472;52.328;13.070;2023-03-21T15:02:25;13.90;99.90
12815;DHT22;6472;52.328;13.070;2023-03-21T15:04:57;13.70;99.90
12815;DHT22;6472;52.328;13.070;2023-03-21T15:07:28;13.60;99.90
12815;DHT22;6472;52.328;13.070;2023-03-21T15:09:59;13.70;99.90
12815;DHT22;6472;52.328;13.070;2023-03-21T15:12:29;13.60;99.90
12815;DHT22;6472;52.328;13.070;2023-03-21T15:14:58;13.60;99.90
12815;DHT22;6472;52.328;13.070;2023-03-21T15:17:27;13.60;99.90
12815;DHT22;6472;52.328;13.070;2023-03-21T15:19:56;13.70;99.90
12815;DHT22;6472;52.328;13.070;2023-03-21T15:22:29;13.60;99.90
12815;DHT22;6472;52.328;13.070;2023-03-21T15:25:00;13.50;99.90
12815;DHT22;6472;52.328;13.070;2023-03-21T15:27:31;13.40;99.90
12815;DHT22;6472;52.328;13.070;2023-03-21T15:29:59;13.40;99.90
12815;DHT22;6472;52.328;13.070;2023-03-21T15:32:28;13.40;99.90
12815;DHT22;6472;52.328;13.070;2023-03-21T15:35:04;13.30;99.90
12815;DHT22;6472;52.328;13.070;2023-03-21T15:37:35;13.20;99.90
12815;DHT22;6472;52.328;13.070;2023-03-21T15:40:15;13.20;99.90
12815;DHT22;6472;52.328;13.070;2023-03-21T15:42:45;13.20;99.90
12815;DHT22;6472;52.328;13.070;2023-03-21T15:45:18;13.10;99.90
12815;DHT22;6472;52.328;13.070;2023-03-21T15:47:53;13.00;99.90
12815;DHT22;6472;52.328;13.070;2023-03-21T15:50:26;13.00;99.90
12815;DHT22;6472;52.328;13.070;2023-03-21T15:52:59;13.00;99.90
12815;DHT22;6472;52.328;13.070;2023-03-21T15:55:31;13.10;99.90
12815;DHT22;6472;52.328;13.070;2023-03-21T15:58:04;13.10;99.90
12815;DHT22;6472;52.328;13.070;2023-03-21T16:00:37;13.10;99.90
12815;DHT22;6472;52.328;13.070;2023-03-21T16:03:11;13.00;99.90
12815;DHT22;6472;52.328;13.070;2023-03-21T16:06:03;13.00;99.90
12815;DHT22;6472;52.328;13.070;2023-03-21T16:08:36;13.00;99.90
12815;DHT22;6472;52.328;13.070;2023-03-21T16:11:16;13.00;99.90
12815;DHT22;6472;52.328;13.070;2023-03-21T16:13:45;12.90;99.90
12815;DHT22;6472;52.328;13.070;2023-03-21T16:16:16;12.90;99.90
12815;DHT22;6472;52.328;13.070;2023-03-21T16:18:45;12.80;99.90
12815;DHT22;6472;52.328;13.070;2023-03-21T16:21:16;12.60;99.90
12815;DHT22;6472;52.328;13.070;2023-03-21T16:23:46;12.60;99.90
12815;DHT22;6472;52.328;13.070;2023-03-21T16:26:17;12.50;99.90
12815;DHT22;6472;52.328;13.070;2023-03-21T16:28:46;12.40;99.90